sensor_id;sensor_type;location;lat;lon;timestamp;pressure;altitude;pressure_sealevel;temperature;humidity
3844;BME280;1937;51.444;6.484;2024-02-21T00:01:17;68639.78;;;9.54;87.28
3844;BME280;1937;51.444;6.484;2024-02-21T00:03:45;68646.50;;;9.57;86.78
3844;BME280;1937;51.444;6.484;2024-02-21T00:06:12;68677.91;;;9.64;86.72
3844;BME280;1937;51.444;6.484;2024-02-21T00:08:38;68618.03;;;9.53;87.29
3844;BME280;1937;51.444;6.484;2024-02-21T00:11:06;68580.25;;;9.58;86.72
3844;BME280;1937;51.444;6.484;2024-02-21T00:13:33;68667.66;;;9.58;86.76
3844;BME280;1937;51.444;6.484;2024-02-21T00:16:00;68615.66;;;9.51;87.13
3844;BME280;1937;51.444;6.484;2024-02-21T00:18:26;68654.78;;;9.58;87.03
3844;BME280;1937;51.444;6.484;2024-02-21T00:20:53;68619.81;;;9.54;87.17
3844;BME280;1937;51.444;6.484;2024-02-21T00:23:20;68667.41;;;9.73;86.00
3844;BME280;1937;51.444;6.484;2024-02-21T00:25:46;68682.66;;;9.62;86.72
3844;BME280;1937;51.444;6.484;2024-02-21T00:28:14;68607.78;;;9.46;87.58
3844;BME280;1937;51.444;6.484;2024-02-21T00:30:41;68640.38;;;9.54;87.24
3844;BME280;1937;51.444;6.484;2024-02-21T00:33:07;68613.84;;;9.62;86.46
3844;BME280;1937;51.444;6.484;2024-02-21T00:35:34;68658.34;;;9.61;86.55
3844;BME280;1937;51.444;6.484;2024-02-21T00:38:00;68615.63;;;9.64;86.97
3844;BME280;1937;51.444;6.484;2024-02-21T00:40:28;68662.69;;;9.69;86.65
3844;BME280;1937;51.444;6.484;2024-02-21T00:42:55;68682.03;;;9.74;86.11
3844;BME280;1937;51.444;6.484;2024-02-21T00:45:23;68632.03;;;9.67;86.67
3844;BME280;1937;51.444;6.484;2024-02-21T00:47:49;68641.91;;;9.71;86.29
3844;BME280;1937;51.444;6.484;2024-02-21T00:50:16;68580.91;;;9.38;87.28
3844;BME280;1937;51.444;6.484;2024-02-21T00:52:43;68621.19;;;9.53;86.61
3844;BME280;1937;51.444;6.484;2024-02-21T00:55:09;68650.03;;;9.60;86.94
3844;BME280;1937;51.444;6.484;2024-02-21T00:57:36;68647.88;;;9.56;86.47
3844;BME280;1937;51.444;6.484;2024-02-21T01:00:04;68619.41;;;9.52;86.93
3844;BME280;1937;51.444;6.484;2024-02-21T01:02:32;68638.59;;;9.59;87.19
3844;BME280;1937;51.444;6.484;2024-02-21T01:05:00;68660.53;;;9.52;87.03
3844;BME280;1937;51.444;6.484;2024-02-21T01:07:26;68653.19;;;9.61;87.04
3844;BME280;1937;51.444;6.484;2024-02-21T01:09:53;68753.84;;;9.63;86.59
3844;BME280;1937;51.444;6.484;2024-02-21T01:12:20;68622.56;;;9.65;86.81
3844;BME280;1937;51.444;6.484;2024-02-21T01:14:47;68609.50;;;9.61;86.62
3844;BME280;1937;51.444;6.484;2024-02-21T01:17:14;68619.81;;;9.54;87.17
3844;BME280;1937;51.444;6.484;2024-02-21T01:19:42;68632.88;;;9.52;86.46
3844;BME280;1937;51.444;6.484;2024-02-21T01:22:09;68647.06;;;9.64;86.83
3844;BME280;1937;51.444;6.484;2024-02-21T01:24:36;68659.94;;;9.58;86.83
3844;BME280;1937;51.444;6.484;2024-02-21T01:27:02;68607.53;;;9.61;87.44
3844;BME280;1937;51.444;6.484;2024-02-21T01:29:29;68656.75;;;9.70;86.19
3844;BME280;1937;51.444;6.484;2024-02-21T01:31:56;68682.66;;;9.68;86.42
3844;BME280;1937;51.444;6.484;2024-02-21T01:34:22;68646.88;;;9.60;87.49
3844;BME280;1937;51.444;6.484;2024-02-21T01:36:50;68663.88;;;9.70;86.04
3844;BME280;1937;51.444;6.484;2024-02-21T01:39:17;68642.28;;;9.73;86.04
3844;BME280;1937;51.444;6.484;2024-02-21T01:41:43;68600.63;;;9.53;86.54
3844;BME280;1937;51.444;6.484;2024-02-21T01:44:10;68606.38;;;9.47;87.11
3844;BME280;1937;51.444;6.484;2024-02-21T01:46:37;68614.28;;;9.45;86.79
3844;BME280;1937;51.444;6.484;2024-02-21T01:49:04;68604.63;;;9.45;86.89
3844;BME280;1937;51.444;6.484;2024-02-21T01:51:31;68581.69;;;9.43;87.07
3844;BME280;1937;51.444;6.484;2024-02-21T01:53:59;68618.47;;;9.42;87.40
3844;BME280;1937;51.444;6.484;2024-02-21T01:56:27;68648.72;;;9.41;87.40
3844;BME280;1937;51.444;6.484;2024-02-21T01:58:55;68598.56;;;9.23;88.63
3844;BME280;1937;51.444;6.484;2024-02-21T02:01:22;68644.78;;;9.36;87.94
3844;BME280;1937;51.444;6.484;2024-02-21T02:03:49;68618.50;;;9.29;87.92
3844;BME280;1937;51.444;6.484;2024-02-21T02:06:16;68634.69;;;9.27;88.58
3844;BME280;1937;51.444;6.484;2024-02-21T02:08:42;68625.59;;;9.28;87.83
3844;BME280;1937;51.444;6.484;2024-02-21T02:11:13;68615.13;;;9.30;87.91
3844;BME280;1937;51.444;6.484;2024-02-21T02:13:40;68562.16;;;9.27;87.67
3844;BME280;1937;51.444;6.484;2024-02-21T02:16:06;68578.22;;;9.14;88.73
3844;BME280;1937;51.444;6.484;2024-02-21T02:18:33;68622.09;;;9.12;89.20
3844;BME280;1937;51.444;6.484;2024-02-21T02:20:59;68528.88;;;8.94;89.12
3844;BME280;1937;51.444;6.484;2024-02-21T02:23:28;68548.28;;;8.73;90.20
3844;BME280;1937;51.444;6.484;2024-02-21T02:25:55;68551.84;;;8.76;89.80
3844;BME280;1937;51.444;6.484;2024-02-21T02:28:22;68515.53;;;8.67;90.71
3844;BME280;1937;51.444;6.484;2024-02-21T02:30:49;68611.25;;;8.85;91.05
3844;BME280;1937;51.444;6.484;2024-02-21T02:33:16;68599.97;;;8.95;89.90
3844;BME280;1937;51.444;6.484;2024-02-21T02:35:43;68612.81;;;8.95;89.91
3844;BME280;1937;51.444;6.484;2024-02-21T02:38:09;68629.63;;;9.01;89.74
3844;BME280;1937;51.444;6.484;2024-02-21T02:40:38;68609.88;;;8.93;89.57
3844;BME280;1937;51.444;6.484;2024-02-21T02:43:05;68592.50;;;8.93;89.91
3844;BME280;1937;51.444;6.484;2024-02-21T02:45:32;68627.84;;;8.99;89.94
3844;BME280;1937;51.444;6.484;2024-02-21T02:47:59;68634.53;;;9.03;89.99
3844;BME280;1937;51.444;6.484;2024-02-21T02:50:27;68657.66;;;9.03;89.80
3844;BME280;1937;51.444;6.484;2024-02-21T02:52:54;68659.84;;;9.07;89.60
3844;BME280;1937;51.444;6.484;2024-02-21T02:55:21;68657.84;;;9.08;90.16
3844;BME280;1937;51.444;6.484;2024-02-21T02:57:49;68676.81;;;9.17;89.39
3844;BME280;1937;51.444;6.484;2024-02-21T03:00:16;68634.13;;;9.14;88.88
3844;BME280;1937;51.444;6.484;2024-02-21T03:02:45;68721.25;;;9.35;88.51
3844;BME280;1937;51.444;6.484;2024-02-21T03:05:13;68653.09;;;9.17;88.56
3844;BME280;1937;51.444;6.484;2024-02-21T03:07:41;68677.97;;;9.25;88.29
3844;BME280;1937;51.444;6.484;2024-02-21T03:10:08;68653.47;;;9.26;87.81
3844;BME280;1937;51.444;6.484;2024-02-21T03:12:35;68671.44;;;9.39;87.57
3844;BME280;1937;51.444;6.484;2024-02-21T03:15:03;68665.09;;;9.44;87.12
3844;BME280;1937;51.444;6.484;2024-02-21T03:17:31;68691.63;;;9.36;86.83
3844;BME280;1937;51.444;6.484;2024-02-21T03:19:59;68620.06;;;9.32;86.89
3844;BME280;1937;51.444;6.484;2024-02-21T03:22:26;68656.03;;;9.26;87.39
3844;BME280;1937;51.444;6.484;2024-02-21T03:24:53;68639.44;;;9.25;87.26
3844;BME280;1937;51.444;6.484;2024-02-21T03:27:19;68595.38;;;9.29;87.17
3844;BME280;1937;51.444;6.484;2024-02-21T03:29:46;68629.53;;;9.40;86.19
3844;BME280;1937;51.444;6.484;2024-02-21T03:32:14;68622.84;;;9.30;86.92
3844;BME280;1937;51.444;6.484;2024-02-21T03:34:41;68564.94;;;9.25;86.60
3844;BME280;1937;51.444;6.484;2024-02-21T03:37:07;68590.00;;;9.31;86.52
3844;BME280;1937;51.444;6.484;2024-02-21T03:39:34;68609.41;;;9.30;86.71
3844;BME280;1937;51.444;6.484;2024-02-21T03:42:00;68567.91;;;9.27;86.38
3844;BME280;1937;51.444;6.484;2024-02-21T03:44:30;68575.84;;;9.12;86.57
3844;BME280;1937;51.444;6.484;2024-02-21T03:46:56;68519.56;;;9.03;87.92
3844;BME280;1937;51.444;6.484;2024-02-21T03:49:24;68576.25;;;9.01;88.09
3844;BME280;1937;51.444;6.484;2024-02-21T03:51:51;68536.34;;;9.09;87.44
3844;BME280;1937;51.444;6.484;2024-02-21T03:54:18;68552.38;;;8.96;88.61
3844;BME280;1937;51.444;6.484;2024-02-21T03:56:44;68551.78;;;8.96;87.95
3844;BME280;1937;51.444;6.484;2024-02-21T03:59:13;68572.13;;;8.98;88.32
3844;BME280;1937;51.444;6.484;2024-02-21T04:01:39;68616.97;;;9.12;87.89
3844;BME280;1937;51.444;6.484;2024-02-21T04:04:06;68590.25;;;9.16;87.49
3844;BME280;1937;51.444;6.484;2024-02-21T04:06:34;68609.81;;;9.19;87.42
3844;BME280;1937;51.444;6.484;2024-02-21T04:09:01;68577.41;;;9.22;86.46
3844;BME280;1937;51.444;6.484;2024-02-21T04:11:27;68571.09;;;9.15;87.42
3844;BME280;1937;51.444;6.484;2024-02-21T04:13:54;68574.22;;;9.28;86.19
3844;BME280;1937;51.444;6.484;2024-02-21T04:16:21;68560.59;;;9.23;86.63
3844;BME280;1937;51.444;6.484;2024-02-21T04:18:47;68548.56;;;9.22;86.14
3844;BME280;1937;51.444;6.484;2024-02-21T04:21:17;68604.88;;;9.30;85.65
3844;BME280;1937;51.444;6.484;2024-02-21T04:23:44;68603.59;;;9.49;84.92
3844;BME280;1937;51.444;6.484;2024-02-21T04:26:11;68588.41;;;9.40;85.23
3844;BME280;1937;51.444;6.484;2024-02-21T04:28:38;68594.38;;;9.32;85.43
3844;BME280;1937;51.444;6.484;2024-02-21T04:31:04;68559.41;;;9.29;84.97
3844;BME280;1937;51.444;6.484;2024-02-21T04:33:31;68573.19;;;9.45;84.74
3844;BME280;1937;51.444;6.484;2024-02-21T04:35:57;68556.38;;;9.46;84.93
3844;BME280;1937;51.444;6.484;2024-02-21T04:38:26;68581.63;;;9.57;83.99
3844;BME280;1937;51.444;6.484;2024-02-21T04:40:55;68545.50;;;9.45;83.58
3844;BME280;1937;51.444;6.484;2024-02-21T04:43:23;68519.59;;;9.48;83.67
3844;BME280;1937;51.444;6.484;2024-02-21T04:45:50;68490.94;;;9.45;83.84
3844;BME280;1937;51.444;6.484;2024-02-21T04:48:18;68491.72;;;9.43;84.24
3844;BME280;1937;51.444;6.484;2024-02-21T04:50:45;68518.38;;;9.53;82.76
3844;BME280;1937;51.444;6.484;2024-02-21T04:53:12;68489.97;;;9.42;83.63
3844;BME280;1937;51.444;6.484;2024-02-21T04:55:38;68509.25;;;9.61;83.01
3844;BME280;1937;51.444;6.484;2024-02-21T04:58:06;68483.16;;;9.58;83.11
3844;BME280;1937;51.444;6.484;2024-02-21T05:00:33;68653.81;;;9.55;82.90
3844;BME280;1937;51.444;6.484;2024-02-21T05:03:00;68504.94;;;9.53;83.45
3844;BME280;1937;51.444;6.484;2024-02-21T05:05:27;68514.63;;;9.52;83.31
3844;BME280;1937;51.444;6.484;2024-02-21T05:07:53;68469.09;;;9.26;84.70
3844;BME280;1937;51.444;6.484;2024-02-21T05:10:20;68517.06;;;9.41;84.15
3844;BME280;1937;51.444;6.484;2024-02-21T05:12:46;68471.03;;;9.32;84.08
3844;BME280;1937;51.444;6.484;2024-02-21T05:15:15;68403.25;;;9.36;84.10
3844;BME280;1937;51.444;6.484;2024-02-21T05:17:42;68533.00;;;9.55;84.07
3844;BME280;1937;51.444;6.484;2024-02-21T05:20:09;68540.09;;;9.61;83.92
3844;BME280;1937;51.444;6.484;2024-02-21T05:22:36;68605.78;;;9.53;83.80
3844;BME280;1937;51.444;6.484;2024-02-21T05:25:03;68522.31;;;9.59;83.51
3844;BME280;1937;51.444;6.484;2024-02-21T05:27:30;68498.09;;;9.38;84.07
3844;BME280;1937;51.444;6.484;2024-02-21T05:29:56;68472.28;;;9.20;85.33
3844;BME280;1937;51.444;6.484;2024-02-21T05:32:25;68484.34;;;9.22;85.50
3844;BME280;1937;51.444;6.484;2024-02-21T05:34:52;68504.25;;;9.34;84.97
3844;BME280;1937;51.444;6.484;2024-02-21T05:37:18;68478.19;;;9.25;84.68
3844;BME280;1937;51.444;6.484;2024-02-21T05:39:45;68511.53;;;9.38;85.32
3844;BME280;1937;51.444;6.484;2024-02-21T05:42:12;68513.13;;;9.35;85.04
3844;BME280;1937;51.444;6.484;2024-02-21T05:44:38;68506.75;;;9.48;84.20
3844;BME280;1937;51.444;6.484;2024-02-21T05:47:05;68494.31;;;9.43;84.28
3844;BME280;1937;51.444;6.484;2024-02-21T05:49:36;68645.16;;;9.32;84.85
3844;BME280;1937;51.444;6.484;2024-02-21T05:52:03;68487.97;;;9.42;84.17
3844;BME280;1937;51.444;6.484;2024-02-21T05:54:31;68491.50;;;9.08;84.23
3844;BME280;1937;51.444;6.484;2024-02-21T05:56:57;68483.09;;;9.34;84.37
3844;BME280;1937;51.444;6.484;2024-02-21T05:59:24;68504.25;;;9.34;84.35
3844;BME280;1937;51.444;6.484;2024-02-21T06:01:55;68473.81;;;9.30;84.88
3844;BME280;1937;51.444;6.484;2024-02-21T06:04:22;68475.97;;;9.34;84.91
3844;BME280;1937;51.444;6.484;2024-02-21T06:06:50;68504.00;;;9.43;84.54
3844;BME280;1937;51.444;6.484;2024-02-21T06:09:17;68580.50;;;9.42;84.06
3844;BME280;1937;51.444;6.484;2024-02-21T06:11:44;68490.00;;;9.35;84.12
3844;BME280;1937;51.444;6.484;2024-02-21T06:14:11;68465.31;;;9.32;84.09
3844;BME280;1937;51.444;6.484;2024-02-21T06:16:38;68488.19;;;9.40;84.43
3844;BME280;1937;51.444;6.484;2024-02-21T06:19:05;68444.84;;;9.19;85.10
3844;BME280;1937;51.444;6.484;2024-02-21T06:21:31;68501.91;;;9.26;85.23
3844;BME280;1937;51.444;6.484;2024-02-21T06:23:59;68494.75;;;9.33;85.11
3844;BME280;1937;51.444;6.484;2024-02-21T06:26:26;68494.75;;;9.33;84.76
3844;BME280;1937;51.444;6.484;2024-02-21T06:28:52;68442.69;;;9.08;86.38
3844;BME280;1937;51.444;6.484;2024-02-21T06:31:19;68466.63;;;9.07;86.29
3844;BME280;1937;51.444;6.484;2024-02-21T06:33:45;68490.91;;;9.08;86.45
3844;BME280;1937;51.444;6.484;2024-02-21T06:36:12;68445.13;;;8.97;86.59
3844;BME280;1937;51.444;6.484;2024-02-21T06:38:39;68452.25;;;8.90;87.18
3844;BME280;1937;51.444;6.484;2024-02-21T06:41:14;68524.66;;;9.17;86.62
3844;BME280;1937;51.444;6.484;2024-02-21T06:43:41;68485.75;;;9.08;86.95
3844;BME280;1937;51.444;6.484;2024-02-21T06:46:08;68505.75;;;9.07;87.53
3844;BME280;1937;51.444;6.484;2024-02-21T06:48:34;68481.44;;;9.06;86.74
3844;BME280;1937;51.444;6.484;2024-02-21T06:51:01;68524.06;;;9.16;86.78
3844;BME280;1937;51.444;6.484;2024-02-21T06:53:28;68503.94;;;9.12;86.58
3844;BME280;1937;51.444;6.484;2024-02-21T06:55:55;68522.09;;;9.17;86.54
3844;BME280;1937;51.444;6.484;2024-02-21T06:58:23;68489.91;;;9.11;86.56
3844;BME280;1937;51.444;6.484;2024-02-21T07:00:49;68489.31;;;9.11;86.63
3844;BME280;1937;51.444;6.484;2024-02-21T07:03:16;68441.59;;;8.94;87.23
3844;BME280;1937;51.444;6.484;2024-02-21T07:05:43;68574.25;;;9.22;86.57
3844;BME280;1937;51.444;6.484;2024-02-21T07:08:09;68565.94;;;9.28;85.62
3844;BME280;1937;51.444;6.484;2024-02-21T07:10:36;68591.41;;;9.30;86.10
3844;BME280;1937;51.444;6.484;2024-02-21T07:13:03;68549.13;;;9.29;85.61
3844;BME280;1937;51.444;6.484;2024-02-21T07:15:31;68501.53;;;9.23;85.75
3844;BME280;1937;51.444;6.484;2024-02-21T07:17:58;68616.91;;;9.25;85.76
3844;BME280;1937;51.444;6.484;2024-02-21T07:20:25;68510.75;;;9.33;85.14
3844;BME280;1937;51.444;6.484;2024-02-21T07:22:51;68509.00;;;9.25;86.08
3844;BME280;1937;51.444;6.484;2024-02-21T07:25:19;68553.66;;;9.35;85.94
3844;BME280;1937;51.444;6.484;2024-02-21T07:27:46;68557.41;;;9.36;84.89
3844;BME280;1937;51.444;6.484;2024-02-21T07:30:15;68474.47;;;9.18;85.68
3844;BME280;1937;51.444;6.484;2024-02-21T07:32:43;68507.22;;;9.30;85.24
3844;BME280;1937;51.444;6.484;2024-02-21T07:35:10;68530.50;;;9.41;85.09
3844;BME280;1937;51.444;6.484;2024-02-21T07:37:37;68553.03;;;9.41;84.66
3844;BME280;1937;51.444;6.484;2024-02-21T07:40:05;68527.31;;;9.48;84.21
3844;BME280;1937;51.444;6.484;2024-02-21T07:42:32;68513.91;;;9.40;84.70
3844;BME280;1937;51.444;6.484;2024-02-21T07:44:59;68521.38;;;9.42;84.29
3844;BME280;1937;51.444;6.484;2024-02-21T07:47:26;68519.19;;;9.52;84.08
3844;BME280;1937;51.444;6.484;2024-02-21T07:49:54;68564.66;;;9.53;84.23
3844;BME280;1937;51.444;6.484;2024-02-21T07:52:20;68518.97;;;9.54;84.30
3844;BME280;1937;51.444;6.484;2024-02-21T07:54:47;68509.56;;;9.39;84.65
3844;BME280;1937;51.444;6.484;2024-02-21T07:57:14;68540.16;;;9.48;84.10
3844;BME280;1937;51.444;6.484;2024-02-21T07:59:40;68539.91;;;9.56;84.05
3844;BME280;1937;51.444;6.484;2024-02-21T08:02:07;68561.03;;;9.63;83.07
3844;BME280;1937;51.444;6.484;2024-02-21T08:04:34;68539.13;;;9.58;83.60
3844;BME280;1937;51.444;6.484;2024-02-21T08:07:02;68519.13;;;9.65;83.17
3844;BME280;1937;51.444;6.484;2024-02-21T08:09:29;68564.94;;;9.75;82.50
3844;BME280;1937;51.444;6.484;2024-02-21T08:11:56;68503.41;;;9.42;82.28
3844;BME280;1937;51.444;6.484;2024-02-21T08:14:23;68516.47;;;9.78;81.96
3844;BME280;1937;51.444;6.484;2024-02-21T08:16:50;68555.81;;;9.83;82.12
3844;BME280;1937;51.444;6.484;2024-02-21T08:19:16;68556.41;;;9.83;82.19
3844;BME280;1937;51.444;6.484;2024-02-21T08:21:43;68498.47;;;9.78;82.08
3844;BME280;1937;51.444;6.484;2024-02-21T08:24:14;68558.13;;;9.98;81.31
3844;BME280;1937;51.444;6.484;2024-02-21T08:26:41;68506.91;;;9.90;81.17
3844;BME280;1937;51.444;6.484;2024-02-21T08:29:07;68470.91;;;9.90;81.91
3844;BME280;1937;51.444;6.484;2024-02-21T08:31:34;68561.66;;;10.01;82.38
3844;BME280;1937;51.444;6.484;2024-02-21T08:34:01;68542.47;;;10.00;81.35
3844;BME280;1937;51.444;6.484;2024-02-21T08:36:29;68561.59;;;10.14;80.34
3844;BME280;1937;51.444;6.484;2024-02-21T08:38:56;68543.19;;;10.12;80.60
3844;BME280;1937;51.444;6.484;2024-02-21T08:41:24;68555.50;;;10.05;81.40
3844;BME280;1937;51.444;6.484;2024-02-21T08:43:51;68519.22;;;10.13;81.15
3844;BME280;1937;51.444;6.484;2024-02-21T08:46:19;68517.25;;;9.83;82.80
3844;BME280;1937;51.444;6.484;2024-02-21T08:48:45;68486.47;;;9.70;83.19
3844;BME280;1937;51.444;6.484;2024-02-21T08:51:13;68505.38;;;9.79;82.67
3844;BME280;1937;51.444;6.484;2024-02-21T08:53:39;68468.91;;;9.66;82.56
3844;BME280;1937;51.444;6.484;2024-02-21T08:56:07;68544.06;;;9.97;82.36
3844;BME280;1937;51.444;6.484;2024-02-21T08:58:36;68572.09;;;10.12;81.43
3844;BME280;1937;51.444;6.484;2024-02-21T09:01:03;68477.50;;;9.82;82.03
3844;BME280;1937;51.444;6.484;2024-02-21T09:03:31;68491.28;;;9.92;82.34
3844;BME280;1937;51.444;6.484;2024-02-21T09:05:58;68480.41;;;9.91;81.38
3844;BME280;1937;51.444;6.484;2024-02-21T09:08:25;68437.06;;;9.63;82.49
3844;BME280;1937;51.444;6.484;2024-02-21T09:10:52;68503.91;;;10.00;80.85
3844;BME280;1937;51.444;6.484;2024-02-21T09:13:19;68460.25;;;9.87;81.14
3844;BME280;1937;51.444;6.484;2024-02-21T09:15:47;68481.34;;;10.01;80.12
3844;BME280;1937;51.444;6.484;2024-02-21T09:18:14;68482.56;;;9.95;80.33
3844;BME280;1937;51.444;6.484;2024-02-21T09:20:40;68452.19;;;9.78;81.29
3844;BME280;1937;51.444;6.484;2024-02-21T09:23:07;68455.31;;;9.85;80.86
3844;BME280;1937;51.444;6.484;2024-02-21T09:25:34;68420.19;;;9.77;81.62
3844;BME280;1937;51.444;6.484;2024-02-21T09:28:01;68462.00;;;9.95;80.67
3844;BME280;1937;51.444;6.484;2024-02-21T09:30:29;68422.13;;;9.83;81.19
3844;BME280;1937;51.444;6.484;2024-02-21T09:32:57;68430.41;;;9.83;81.06
3844;BME280;1937;51.444;6.484;2024-02-21T09:35:26;68400.00;;;9.73;80.59
3844;BME280;1937;51.444;6.484;2024-02-21T09:37:53;68493.41;;;9.96;80.72
3844;BME280;1937;51.444;6.484;2024-02-21T09:40:20;68497.84;;;9.84;80.56
3844;BME280;1937;51.444;6.484;2024-02-21T09:42:54;68460.38;;;9.98;80.22
3844;BME280;1937;51.444;6.484;2024-02-21T09:45:24;68486.94;;;10.21;79.57
3844;BME280;1937;51.444;6.484;2024-02-21T09:48:02;68416.06;;;9.98;80.57
3844;BME280;1937;51.444;6.484;2024-02-21T09:50:34;68544.16;;;10.15;80.25
3844;BME280;1937;51.444;6.484;2024-02-21T09:53:01;68452.44;;;10.00;80.52
3844;BME280;1937;51.444;6.484;2024-02-21T09:55:29;68407.84;;;9.84;80.45
3844;BME280;1937;51.444;6.484;2024-02-21T09:58:01;68520.41;;;10.14;80.33
3844;BME280;1937;51.444;6.484;2024-02-21T10:00:28;68485.41;;;10.17;79.57
3844;BME280;1937;51.444;6.484;2024-02-21T10:02:55;68540.78;;;10.23;79.19
3844;BME280;1937;51.444;6.484;2024-02-21T10:05:23;68425.69;;;10.35;79.69
3844;BME280;1937;51.444;6.484;2024-02-21T10:07:51;68479.63;;;10.23;79.00
3844;BME280;1937;51.444;6.484;2024-02-21T10:10:18;68491.91;;;10.23;78.44
3844;BME280;1937;51.444;6.484;2024-02-21T10:12:50;68478.00;;;10.26;78.58
3844;BME280;1937;51.444;6.484;2024-02-21T10:15:20;68424.03;;;10.13;78.75
3844;BME280;1937;51.444;6.484;2024-02-21T10:17:47;68426.88;;;10.05;78.94
3844;BME280;1937;51.444;6.484;2024-02-21T10:20:14;68451.84;;;10.31;78.95
3844;BME280;1937;51.444;6.484;2024-02-21T10:22:43;68460.09;;;10.38;77.94
3844;BME280;1937;51.444;6.484;2024-02-21T10:25:10;68455.53;;;10.38;77.68
3844;BME280;1937;51.444;6.484;2024-02-21T10:27:38;68505.50;;;10.59;76.33
3844;BME280;1937;51.444;6.484;2024-02-21T10:30:06;68300.16;;;9.93;77.67
3844;BME280;1937;51.444;6.484;2024-02-21T10:32:33;68431.16;;;10.19;78.30
3844;BME280;1937;51.444;6.484;2024-02-21T10:35:01;68414.81;;;10.34;77.17
3844;BME280;1937;51.444;6.484;2024-02-21T10:37:30;68475.50;;;10.68;76.52
3844;BME280;1937;51.444;6.484;2024-02-21T10:39:58;68373.63;;;10.34;76.08
3844;BME280;1937;51.444;6.484;2024-02-21T10:42:28;68412.63;;;10.54;75.29
3844;BME280;1937;51.444;6.484;2024-02-21T10:45:00;68419.22;;;10.71;75.20
3844;BME280;1937;51.444;6.484;2024-02-21T10:47:28;68438.44;;;10.90;73.74
3844;BME280;1937;51.444;6.484;2024-02-21T10:50:02;68499.06;;;10.71;74.33
3844;BME280;1937;51.444;6.484;2024-02-21T10:52:38;68481.28;;;11.29;73.08
3844;BME280;1937;51.444;6.484;2024-02-21T10:55:18;68388.69;;;10.74;74.54
3844;BME280;1937;51.444;6.484;2024-02-21T10:57:46;68433.47;;;10.94;73.66
3844;BME280;1937;51.444;6.484;2024-02-21T11:00:15;68355.06;;;10.69;74.31
3844;BME280;1937;51.444;6.484;2024-02-21T11:02:44;68399.91;;;10.83;74.40
3844;BME280;1937;51.444;6.484;2024-02-21T11:05:11;68338.66;;;10.66;74.74
3844;BME280;1937;51.444;6.484;2024-02-21T11:07:39;68386.25;;;10.78;75.27
3844;BME280;1937;51.444;6.484;2024-02-21T11:10:22;68427.44;;;11.02;74.24
3844;BME280;1937;51.444;6.484;2024-02-21T11:12:49;68410.22;;;11.19;72.93
3844;BME280;1937;51.444;6.484;2024-02-21T11:15:18;68474.13;;;11.12;73.63
3844;BME280;1937;51.444;6.484;2024-02-21T11:17:54;68446.97;;;11.13;73.93
3844;BME280;1937;51.444;6.484;2024-02-21T11:20:31;68558.63;;;11.71;72.10
3844;BME280;1937;51.444;6.484;2024-02-21T11:22:59;68514.50;;;11.79;71.91
3844;BME280;1937;51.444;6.484;2024-02-21T11:25:27;68426.56;;;11.46;72.31
3844;BME280;1937;51.444;6.484;2024-02-21T11:28:00;68391.66;;;11.12;73.38
3844;BME280;1937;51.444;6.484;2024-02-21T11:30:27;68551.41;;;11.36;72.97
3844;BME280;1937;51.444;6.484;2024-02-21T11:33:00;68488.84;;;11.66;71.05
3844;BME280;1937;51.444;6.484;2024-02-21T11:35:31;68544.66;;;11.81;71.92
3844;BME280;1937;51.444;6.484;2024-02-21T11:38:07;68480.59;;;11.59;70.76
3844;BME280;1937;51.444;6.484;2024-02-21T11:40:39;68436.28;;;11.45;71.86
3844;BME280;1937;51.444;6.484;2024-02-21T11:43:07;68430.25;;;11.36;71.93
3844;BME280;1937;51.444;6.484;2024-02-21T11:45:33;68325.56;;;11.03;73.10
3844;BME280;1937;51.444;6.484;2024-02-21T11:48:00;68317.47;;;11.01;73.62
3844;BME280;1937;51.444;6.484;2024-02-21T11:50:29;68439.53;;;11.39;72.60
3844;BME280;1937;51.444;6.484;2024-02-21T11:52:55;68480.44;;;11.72;71.18
3844;BME280;1937;51.444;6.484;2024-02-21T11:55:22;68424.78;;;11.62;71.87
3844;BME280;1937;51.444;6.484;2024-02-21T11:57:51;68470.22;;;11.83;70.59
3844;BME280;1937;51.444;6.484;2024-02-21T12:00:19;68529.91;;;12.04;70.93
3844;BME280;1937;51.444;6.484;2024-02-21T12:02:47;68598.59;;;12.43;69.34
3844;BME280;1937;51.444;6.484;2024-02-21T12:05:15;68422.16;;;11.86;70.48
3844;BME280;1937;51.444;6.484;2024-02-21T12:07:42;68538.47;;;12.20;68.91
3844;BME280;1937;51.444;6.484;2024-02-21T12:10:10;68515.22;;;12.20;69.04
3844;BME280;1937;51.444;6.484;2024-02-21T12:12:37;68434.66;;;11.84;70.58
3844;BME280;1937;51.444;6.484;2024-02-21T12:15:07;68452.72;;;12.02;69.50
3844;BME280;1937;51.444;6.484;2024-02-21T12:17:35;68530.28;;;12.42;69.29
3844;BME280;1937;51.444;6.484;2024-02-21T12:20:02;68469.91;;;12.39;68.15
3844;BME280;1937;51.444;6.484;2024-02-21T12:22:30;68588.59;;;12.81;68.33
3844;BME280;1937;51.444;6.484;2024-02-21T12:24:58;68578.06;;;12.65;68.47
3844;BME280;1937;51.444;6.484;2024-02-21T12:27:25;68632.75;;;12.96;67.67
3844;BME280;1937;51.444;6.484;2024-02-21T12:29:52;68610.59;;;13.04;66.01
3844;BME280;1937;51.444;6.484;2024-02-21T12:32:20;68501.66;;;12.72;66.43
3844;BME280;1937;51.444;6.484;2024-02-21T12:34:46;68631.13;;;13.17;66.28
3844;BME280;1937;51.444;6.484;2024-02-21T12:37:13;68647.22;;;13.35;65.91
3844;BME280;1937;51.444;6.484;2024-02-21T12:39:41;68571.44;;;13.19;64.93
3844;BME280;1937;51.444;6.484;2024-02-21T12:42:08;68504.38;;;12.77;66.69
3844;BME280;1937;51.444;6.484;2024-02-21T12:44:37;68451.13;;;12.62;66.77
3844;BME280;1937;51.444;6.484;2024-02-21T12:47:04;68463.09;;;12.59;67.63
3844;BME280;1937;51.444;6.484;2024-02-21T12:49:32;68475.19;;;12.61;66.57
3844;BME280;1937;51.444;6.484;2024-02-21T12:51:59;68311.50;;;11.96;68.16
3844;BME280;1937;51.444;6.484;2024-02-21T12:54:26;68243.94;;;11.60;69.23
3844;BME280;1937;51.444;6.484;2024-02-21T12:56:53;68450.03;;;12.55;67.20
3844;BME280;1937;51.444;6.484;2024-02-21T12:59:19;68481.97;;;12.87;65.44
3844;BME280;1937;51.444;6.484;2024-02-21T13:01:46;68452.63;;;12.84;65.29
3844;BME280;1937;51.444;6.484;2024-02-21T13:04:13;68382.88;;;12.55;66.37
3844;BME280;1937;51.444;6.484;2024-02-21T13:06:42;68260.56;;;11.89;67.79
3844;BME280;1937;51.444;6.484;2024-02-21T13:09:09;68178.50;;;11.57;68.36
3844;BME280;1937;51.444;6.484;2024-02-21T13:11:39;68335.00;;;11.58;68.12
3844;BME280;1937;51.444;6.484;2024-02-21T13:14:06;68262.31;;;11.91;68.55
3844;BME280;1937;51.444;6.484;2024-02-21T13:16:33;68261.97;;;11.88;68.19
3844;BME280;1937;51.444;6.484;2024-02-21T13:19:04;68312.94;;;12.06;68.97
3844;BME280;1937;51.444;6.484;2024-02-21T13:21:31;68353.34;;;12.25;66.43
3844;BME280;1937;51.444;6.484;2024-02-21T13:23:58;68261.59;;;11.86;67.59
3844;BME280;1937;51.444;6.484;2024-02-21T13:26:25;68258.34;;;11.92;68.15
3844;BME280;1937;51.444;6.484;2024-02-21T13:28:52;68350.66;;;12.31;67.37
3844;BME280;1937;51.444;6.484;2024-02-21T13:31:19;68303.50;;;11.98;66.40